Jago, Mississippi
Current Conditions -  °F | °C
As of 9:54 AM on Thursday 23 Oct 2014 (Local Time) from KMEM Reporting Station
Broken Clouds Broken Clouds  
Wind Chill: 56°   Ceiling: 25000
Heat Index: 56°   Visibility: 10mi
Dew Point: 43°   Wind: 7mph
Humidity: 62%   Direction: 90°E
Pressure: 30.22"   Gusts: NA
Location:  34.9498°N, 90.0305°W
Report Text: KMEM 231454Z 09006KT 10SM FEW150 BKN250 13/06 A3022 RMK AO2 SLP232 T01330061 51009
Loading
Personal Weather Stations






























Interactive Weather Map
Tropical Storm Tracking
New forecast layout! Learn more

10-Day Weather Forecast

Advertisements
Track Severe Weather on mobile